sensor_id;sensor_type;location;lat;lon;timestamp;P1;durP1;ratioP1;P2;durP2;ratioP2
53391;SDS011;41667;51.922;8.850;2023-07-31T00:00:39;0.77;;;0.77;;
53391;SDS011;41667;51.922;8.850;2023-07-31T00:03:05;1.75;;;0.65;;
53391;SDS011;41667;51.922;8.850;2023-07-31T00:05:30;0.80;;;0.80;;
53391;SDS011;41667;51.922;8.850;2023-07-31T00:07:55;1.07;;;1.00;;
53391;SDS011;41667;51.922;8.850;2023-07-31T00:10:20;0.93;;;0.93;;
53391;SDS011;41667;51.922;8.850;2023-07-31T00:12:45;1.77;;;1.00;;
53391;SDS011;41667;51.922;8.850;2023-07-31T00:15:10;2.05;;;0.98;;
53391;SDS011;41667;51.922;8.850;2023-07-31T00:17:36;1.00;;;0.93;;
53391;SDS011;41667;51.922;8.850;2023-07-31T00:20:02;1.40;;;1.05;;
53391;SDS011;41667;51.922;8.850;2023-07-31T00:22:27;1.27;;;1.17;;
53391;SDS011;41667;51.922;8.850;2023-07-31T00:24:52;1.37;;;1.07;;
53391;SDS011;41667;51.922;8.850;2023-07-31T00:27:17;2.25;;;1.42;;
53391;SDS011;41667;51.922;8.850;2023-07-31T00:29:42;1.23;;;1.23;;
53391;SDS011;41667;51.922;8.850;2023-07-31T00:32:07;1.20;;;1.20;;
53391;SDS011;41667;51.922;8.850;2023-07-31T00:34:33;1.10;;;1.10;;
53391;SDS011;41667;51.922;8.850;2023-07-31T00:36:58;0.93;;;0.93;;
53391;SDS011;41667;51.922;8.850;2023-07-31T00:39:23;1.40;;;1.30;;
53391;SDS011;41667;51.922;8.850;2023-07-31T00:41:48;1.50;;;1.40;;
53391;SDS011;41667;51.922;8.850;2023-07-31T00:44:13;1.70;;;1.20;;
53391;SDS011;41667;51.922;8.850;2023-07-31T00:46:38;1.13;;;1.03;;
53391;SDS011;41667;51.922;8.850;2023-07-31T00:49:04;1.25;;;1.25;;
53391;SDS011;41667;51.922;8.850;2023-07-31T00:51:29;1.40;;;1.30;;
53391;SDS011;41667;51.922;8.850;2023-07-31T00:53:54;1.23;;;1.10;;
53391;SDS011;41667;51.922;8.850;2023-07-31T00:56:20;1.25;;;1.17;;
53391;SDS011;41667;51.922;8.850;2023-07-31T00:58:46;2.10;;;1.13;;
53391;SDS011;41667;51.922;8.850;2023-07-31T01:01:11;1.08;;;1.08;;
53391;SDS011;41667;51.922;8.850;2023-07-31T01:03:36;0.97;;;0.97;;
53391;SDS011;41667;51.922;8.850;2023-07-31T01:06:09;1.70;;;1.55;;
53391;SDS011;41667;51.922;8.850;2023-07-31T01:08:40;1.23;;;1.13;;
53391;SDS011;41667;51.922;8.850;2023-07-31T01:11:19;1.20;;;1.08;;
53391;SDS011;41667;51.922;8.850;2023-07-31T01:13:46;2.88;;;1.10;;
53391;SDS011;41667;51.922;8.850;2023-07-31T01:16:12;1.88;;;1.40;;
53391;SDS011;41667;51.922;8.850;2023-07-31T01:18:37;1.20;;;1.10;;
53391;SDS011;41667;51.922;8.850;2023-07-31T01:21:18;1.30;;;1.20;;
53391;SDS011;41667;51.922;8.850;2023-07-31T01:26:33;0.98;;;0.98;;
53391;SDS011;41667;51.922;8.850;2023-07-31T01:29:03;1.08;;;1.08;;
53391;SDS011;41667;51.922;8.850;2023-07-31T01:31:31;1.23;;;1.13;;
53391;SDS011;41667;51.922;8.850;2023-07-31T01:33:58;0.88;;;0.88;;
53391;SDS011;41667;51.922;8.850;2023-07-31T01:36:24;0.90;;;0.90;;
53391;SDS011;41667;51.922;8.850;2023-07-31T01:38:50;1.50;;;1.40;;
53391;SDS011;41667;51.922;8.850;2023-07-31T01:41:18;1.20;;;1.10;;
53391;SDS011;41667;51.922;8.850;2023-07-31T01:43:44;1.95;;;1.10;;
53391;SDS011;41667;51.922;8.850;2023-07-31T01:46:09;1.75;;;1.35;;
53391;SDS011;41667;51.922;8.850;2023-07-31T01:48:34;1.47;;;1.13;;
53391;SDS011;41667;51.922;8.850;2023-07-31T01:51:01;0.93;;;0.93;;
53391;SDS011;41667;51.922;8.850;2023-07-31T01:53:27;0.80;;;0.70;;
53391;SDS011;41667;51.922;8.850;2023-07-31T01:55:52;0.87;;;0.73;;
53391;SDS011;41667;51.922;8.850;2023-07-31T01:58:17;1.10;;;1.00;;
53391;SDS011;41667;51.922;8.850;2023-07-31T02:00:42;0.90;;;0.90;;
53391;SDS011;41667;51.922;8.850;2023-07-31T02:03:07;4.07;;;1.13;;
53391;SDS011;41667;51.922;8.850;2023-07-31T02:05:33;0.90;;;0.88;;
53391;SDS011;41667;51.922;8.850;2023-07-31T02:07:58;0.90;;;0.90;;
53391;SDS011;41667;51.922;8.850;2023-07-31T02:10:23;1.40;;;0.80;;
53391;SDS011;41667;51.922;8.850;2023-07-31T02:12:48;2.67;;;1.00;;
53391;SDS011;41667;51.922;8.850;2023-07-31T02:15:13;0.77;;;0.75;;
53391;SDS011;41667;51.922;8.850;2023-07-31T02:17:38;1.50;;;0.90;;
53391;SDS011;41667;51.922;8.850;2023-07-31T02:20:04;1.40;;;0.98;;
53391;SDS011;41667;51.922;8.850;2023-07-31T02:22:29;0.98;;;0.68;;
53391;SDS011;41667;51.922;8.850;2023-07-31T02:24:54;0.50;;;0.50;;
53391;SDS011;41667;51.922;8.850;2023-07-31T02:27:19;0.60;;;0.60;;
53391;SDS011;41667;51.922;8.850;2023-07-31T02:29:49;0.75;;;0.70;;
53391;SDS011;41667;51.922;8.850;2023-07-31T02:32:14;1.17;;;0.80;;
53391;SDS011;41667;51.922;8.850;2023-07-31T02:34:39;0.73;;;0.70;;
53391;SDS011;41667;51.922;8.850;2023-07-31T02:37:04;0.90;;;0.90;;
53391;SDS011;41667;51.922;8.850;2023-07-31T02:39:29;0.60;;;0.60;;
53391;SDS011;41667;51.922;8.850;2023-07-31T02:41:54;1.17;;;0.65;;
53391;SDS011;41667;51.922;8.850;2023-07-31T02:44:20;0.60;;;0.60;;
53391;SDS011;41667;51.922;8.850;2023-07-31T02:46:46;1.83;;;0.40;;
53391;SDS011;41667;51.922;8.850;2023-07-31T02:49:11;0.67;;;0.67;;
53391;SDS011;41667;51.922;8.850;2023-07-31T02:51:36;1.35;;;0.50;;
53391;SDS011;41667;51.922;8.850;2023-07-31T02:54:01;0.50;;;0.50;;
53391;SDS011;41667;51.922;8.850;2023-07-31T02:56:26;0.60;;;0.60;;
53391;SDS011;41667;51.922;8.850;2023-07-31T02:58:51;0.40;;;0.40;;
53391;SDS011;41667;51.922;8.850;2023-07-31T03:01:16;0.88;;;0.60;;
53391;SDS011;41667;51.922;8.850;2023-07-31T03:03:42;0.30;;;0.30;;
53391;SDS011;41667;51.922;8.850;2023-07-31T03:06:07;0.30;;;0.30;;
53391;SDS011;41667;51.922;8.850;2023-07-31T03:08:32;0.70;;;0.70;;
53391;SDS011;41667;51.922;8.850;2023-07-31T03:10:57;0.50;;;0.50;;
53391;SDS011;41667;51.922;8.850;2023-07-31T03:13:22;0.60;;;0.60;;
53391;SDS011;41667;51.922;8.850;2023-07-31T03:15:47;0.70;;;0.70;;
53391;SDS011;41667;51.922;8.850;2023-07-31T03:18:13;1.40;;;1.05;;
53391;SDS011;41667;51.922;8.850;2023-07-31T03:20:41;1.17;;;1.17;;
53391;SDS011;41667;51.922;8.850;2023-07-31T03:23:06;2.60;;;0.80;;
53391;SDS011;41667;51.922;8.850;2023-07-31T03:25:32;1.25;;;1.15;;
53391;SDS011;41667;51.922;8.850;2023-07-31T03:27:57;2.63;;;1.83;;
53391;SDS011;41667;51.922;8.850;2023-07-31T03:30:22;2.83;;;2.15;;
53391;SDS011;41667;51.922;8.850;2023-07-31T03:32:47;5.72;;;2.28;;
53391;SDS011;41667;51.922;8.850;2023-07-31T03:35:13;7.30;;;3.53;;
53391;SDS011;41667;51.922;8.850;2023-07-31T03:37:38;5.70;;;3.13;;
53391;SDS011;41667;51.922;8.850;2023-07-31T03:40:03;7.43;;;5.37;;
53391;SDS011;41667;51.922;8.850;2023-07-31T03:42:29;9.15;;;4.70;;
53391;SDS011;41667;51.922;8.850;2023-07-31T03:44:54;6.53;;;3.72;;
53391;SDS011;41667;51.922;8.850;2023-07-31T03:47:19;6.70;;;4.22;;
53391;SDS011;41667;51.922;8.850;2023-07-31T03:49:44;7.03;;;4.05;;
53391;SDS011;41667;51.922;8.850;2023-07-31T03:52:10;13.18;;;3.85;;
53391;SDS011;41667;51.922;8.850;2023-07-31T03:54:35;11.23;;;4.97;;
53391;SDS011;41667;51.922;8.850;2023-07-31T03:57:00;6.47;;;4.03;;
53391;SDS011;41667;51.922;8.850;2023-07-31T03:59:25;10.10;;;4.93;;
53391;SDS011;41667;51.922;8.850;2023-07-31T04:01:50;11.73;;;5.10;;
53391;SDS011;41667;51.922;8.850;2023-07-31T04:04:15;9.07;;;6.20;;
53391;SDS011;41667;51.922;8.850;2023-07-31T04:06:40;9.20;;;4.18;;
53391;SDS011;41667;51.922;8.850;2023-07-31T04:09:06;12.68;;;5.15;;
53391;SDS011;41667;51.922;8.850;2023-07-31T04:11:31;6.80;;;4.68;;
53391;SDS011;41667;51.922;8.850;2023-07-31T04:13:56;14.80;;;5.85;;
53391;SDS011;41667;51.922;8.850;2023-07-31T04:16:21;6.83;;;3.97;;
53391;SDS011;41667;51.922;8.850;2023-07-31T04:18:47;7.90;;;4.20;;
53391;SDS011;41667;51.922;8.850;2023-07-31T04:21:12;8.30;;;4.28;;
53391;SDS011;41667;51.922;8.850;2023-07-31T04:23:37;7.70;;;4.18;;
53391;SDS011;41667;51.922;8.850;2023-07-31T04:26:02;8.55;;;4.80;;
53391;SDS011;41667;51.922;8.850;2023-07-31T04:28:28;9.40;;;4.72;;
53391;SDS011;41667;51.922;8.850;2023-07-31T04:30:53;10.77;;;4.40;;
53391;SDS011;41667;51.922;8.850;2023-07-31T04:33:18;11.00;;;4.85;;
53391;SDS011;41667;51.922;8.850;2023-07-31T04:35:51;12.15;;;5.15;;
53391;SDS011;41667;51.922;8.850;2023-07-31T04:38:17;8.70;;;4.55;;
53391;SDS011;41667;51.922;8.850;2023-07-31T04:40:42;9.00;;;4.97;;
53391;SDS011;41667;51.922;8.850;2023-07-31T04:43:07;14.40;;;5.10;;
53391;SDS011;41667;51.922;8.850;2023-07-31T04:45:32;8.13;;;4.57;;
53391;SDS011;41667;51.922;8.850;2023-07-31T04:47:57;10.17;;;4.50;;
53391;SDS011;41667;51.922;8.850;2023-07-31T04:50:23;10.00;;;4.45;;
53391;SDS011;41667;51.922;8.850;2023-07-31T04:52:48;13.67;;;4.20;;
53391;SDS011;41667;51.922;8.850;2023-07-31T04:55:13;6.47;;;4.15;;
53391;SDS011;41667;51.922;8.850;2023-07-31T04:57:38;15.47;;;4.67;;
53391;SDS011;41667;51.922;8.850;2023-07-31T05:00:03;7.43;;;4.90;;
53391;SDS011;41667;51.922;8.850;2023-07-31T05:02:29;12.55;;;5.60;;
53391;SDS011;41667;51.922;8.850;2023-07-31T05:04:54;6.43;;;4.27;;
53391;SDS011;41667;51.922;8.850;2023-07-31T05:07:19;13.43;;;5.05;;
53391;SDS011;41667;51.922;8.850;2023-07-31T05:09:44;9.00;;;5.22;;
53391;SDS011;41667;51.922;8.850;2023-07-31T05:12:10;16.17;;;5.30;;
53391;SDS011;41667;51.922;8.850;2023-07-31T05:14:35;14.75;;;6.03;;
53391;SDS011;41667;51.922;8.850;2023-07-31T05:17:00;7.88;;;4.72;;
53391;SDS011;41667;51.922;8.850;2023-07-31T05:19:25;11.97;;;4.50;;
53391;SDS011;41667;51.922;8.850;2023-07-31T05:21:50;11.52;;;4.88;;
53391;SDS011;41667;51.922;8.850;2023-07-31T05:24:15;8.63;;;4.22;;
53391;SDS011;41667;51.922;8.850;2023-07-31T05:26:41;12.38;;;4.43;;
53391;SDS011;41667;51.922;8.850;2023-07-31T05:29:06;7.32;;;4.85;;
53391;SDS011;41667;51.922;8.850;2023-07-31T05:31:31;13.63;;;4.60;;
53391;SDS011;41667;51.922;8.850;2023-07-31T05:33:57;10.32;;;4.43;;
53391;SDS011;41667;51.922;8.850;2023-07-31T05:36:22;8.23;;;4.47;;
53391;SDS011;41667;51.922;8.850;2023-07-31T05:38:47;14.75;;;4.53;;
53391;SDS011;41667;51.922;8.850;2023-07-31T05:41:13;9.10;;;4.67;;
53391;SDS011;41667;51.922;8.850;2023-07-31T05:43:38;9.00;;;2.92;;
53391;SDS011;41667;51.922;8.850;2023-07-31T05:46:03;13.02;;;4.72;;
53391;SDS011;41667;51.922;8.850;2023-07-31T05:48:28;8.47;;;3.30;;
53391;SDS011;41667;51.922;8.850;2023-07-31T05:50:53;14.13;;;4.13;;
53391;SDS011;41667;51.922;8.850;2023-07-31T05:53:19;8.07;;;3.50;;
53391;SDS011;41667;51.922;8.850;2023-07-31T05:55:44;10.13;;;3.23;;
53391;SDS011;41667;51.922;8.850;2023-07-31T05:58:09;9.57;;;3.80;;
53391;SDS011;41667;51.922;8.850;2023-07-31T06:00:34;9.43;;;3.83;;
53391;SDS011;41667;51.922;8.850;2023-07-31T06:02:59;9.80;;;4.18;;
53391;SDS011;41667;51.922;8.850;2023-07-31T06:05:24;7.40;;;3.53;;
53391;SDS011;41667;51.922;8.850;2023-07-31T06:07:51;10.70;;;3.63;;
53391;SDS011;41667;51.922;8.850;2023-07-31T06:10:16;5.13;;;3.40;;
53391;SDS011;41667;51.922;8.850;2023-07-31T06:12:41;9.52;;;3.92;;
53391;SDS011;41667;51.922;8.850;2023-07-31T06:15:06;11.68;;;3.90;;
53391;SDS011;41667;51.922;8.850;2023-07-31T06:17:31;12.88;;;4.50;;
53391;SDS011;41667;51.922;8.850;2023-07-31T06:19:57;12.05;;;4.38;;
53391;SDS011;41667;51.922;8.850;2023-07-31T06:22:22;8.20;;;3.70;;
53391;SDS011;41667;51.922;8.850;2023-07-31T06:24:47;9.23;;;4.15;;
53391;SDS011;41667;51.922;8.850;2023-07-31T06:27:13;7.88;;;4.07;;
53391;SDS011;41667;51.922;8.850;2023-07-31T06:29:38;8.27;;;4.38;;
53391;SDS011;41667;51.922;8.850;2023-07-31T06:32:03;6.90;;;3.23;;
53391;SDS011;41667;51.922;8.850;2023-07-31T06:34:28;9.80;;;3.70;;
53391;SDS011;41667;51.922;8.850;2023-07-31T06:36:54;11.90;;;4.03;;
53391;SDS011;41667;51.922;8.850;2023-07-31T06:39:19;5.90;;;3.28;;
53391;SDS011;41667;51.922;8.850;2023-07-31T06:41:44;6.75;;;4.10;;
53391;SDS011;41667;51.922;8.850;2023-07-31T06:44:09;8.53;;;3.03;;
53391;SDS011;41667;51.922;8.850;2023-07-31T06:46:34;10.85;;;3.97;;
53391;SDS011;41667;51.922;8.850;2023-07-31T06:49:00;9.03;;;4.13;;
53391;SDS011;41667;51.922;8.850;2023-07-31T06:51:25;10.17;;;3.47;;
53391;SDS011;41667;51.922;8.850;2023-07-31T06:53:50;8.70;;;3.87;;
53391;SDS011;41667;51.922;8.850;2023-07-31T06:56:15;11.63;;;4.03;;
53391;SDS011;41667;51.922;8.850;2023-07-31T06:58:40;11.05;;;3.83;;
53391;SDS011;41667;51.922;8.850;2023-07-31T07:01:05;13.13;;;3.55;;
53391;SDS011;41667;51.922;8.850;2023-07-31T07:03:30;11.20;;;3.75;;
53391;SDS011;41667;51.922;8.850;2023-07-31T07:05:56;5.27;;;3.27;;
53391;SDS011;41667;51.922;8.850;2023-07-31T07:08:21;7.35;;;3.80;;
53391;SDS011;41667;51.922;8.850;2023-07-31T07:10:46;8.50;;;3.93;;
53391;SDS011;41667;51.922;8.850;2023-07-31T07:13:12;6.55;;;4.05;;
53391;SDS011;41667;51.922;8.850;2023-07-31T07:15:38;10.57;;;3.38;;
53391;SDS011;41667;51.922;8.850;2023-07-31T07:18:03;8.43;;;3.83;;
53391;SDS011;41667;51.922;8.850;2023-07-31T07:20:28;12.60;;;4.72;;
53391;SDS011;41667;51.922;8.850;2023-07-31T07:22:53;8.40;;;3.65;;
53391;SDS011;41667;51.922;8.850;2023-07-31T07:25:19;7.22;;;3.85;;
53391;SDS011;41667;51.922;8.850;2023-07-31T07:27:44;7.05;;;3.30;;
53391;SDS011;41667;51.922;8.850;2023-07-31T07:30:09;8.30;;;4.53;;
53391;SDS011;41667;51.922;8.850;2023-07-31T07:32:34;8.70;;;3.92;;
53391;SDS011;41667;51.922;8.850;2023-07-31T07:34:59;5.78;;;3.17;;
53391;SDS011;41667;51.922;8.850;2023-07-31T07:37:24;5.60;;;3.13;;
53391;SDS011;41667;51.922;8.850;2023-07-31T07:39:50;3.63;;;3.23;;
53391;SDS011;41667;51.922;8.850;2023-07-31T07:42:15;5.53;;;2.53;;
53391;SDS011;41667;51.922;8.850;2023-07-31T07:44:40;4.40;;;2.50;;
53391;SDS011;41667;51.922;8.850;2023-07-31T07:47:05;2.35;;;1.92;;
53391;SDS011;41667;51.922;8.850;2023-07-31T07:49:34;4.05;;;2.13;;
53391;SDS011;41667;51.922;8.850;2023-07-31T07:51:59;3.50;;;2.10;;
53391;SDS011;41667;51.922;8.850;2023-07-31T07:54:24;4.03;;;2.33;;
53391;SDS011;41667;51.922;8.850;2023-07-31T07:56:50;2.85;;;2.00;;
53391;SDS011;41667;51.922;8.850;2023-07-31T07:59:15;5.70;;;2.20;;
53391;SDS011;41667;51.922;8.850;2023-07-31T08:01:40;1.60;;;1.27;;
53391;SDS011;41667;51.922;8.850;2023-07-31T08:04:05;2.30;;;1.50;;
53391;SDS011;41667;51.922;8.850;2023-07-31T08:06:30;4.53;;;1.23;;
53391;SDS011;41667;51.922;8.850;2023-07-31T08:08:55;1.67;;;1.17;;
53391;SDS011;41667;51.922;8.850;2023-07-31T08:11:20;1.47;;;1.10;;
53391;SDS011;41667;51.922;8.850;2023-07-31T08:13:48;2.78;;;1.40;;
53391;SDS011;41667;51.922;8.850;2023-07-31T08:16:13;2.95;;;1.27;;
53391;SDS011;41667;51.922;8.850;2023-07-31T08:18:38;4.03;;;1.93;;
53391;SDS011;41667;51.922;8.850;2023-07-31T08:21:05;1.90;;;1.73;;
53391;SDS011;41667;51.922;8.850;2023-07-31T08:23:30;3.45;;;1.90;;
53391;SDS011;41667;51.922;8.850;2023-07-31T08:25:55;1.87;;;1.70;;
53391;SDS011;41667;51.922;8.850;2023-07-31T08:28:20;3.40;;;2.22;;
53391;SDS011;41667;51.922;8.850;2023-07-31T08:30:45;3.27;;;2.07;;
53391;SDS011;41667;51.922;8.850;2023-07-31T08:33:11;3.03;;;2.10;;
53391;SDS011;41667;51.922;8.850;2023-07-31T08:35:36;3.33;;;2.17;;
53391;SDS011;41667;51.922;8.850;2023-07-31T08:38:01;2.65;;;1.98;;
53391;SDS011;41667;51.922;8.850;2023-07-31T08:40:26;3.87;;;2.97;;
53391;SDS011;41667;51.922;8.850;2023-07-31T08:42:53;5.10;;;2.95;;
53391;SDS011;41667;51.922;8.850;2023-07-31T08:45:19;5.25;;;3.50;;
53391;SDS011;41667;51.922;8.850;2023-07-31T08:47:46;4.47;;;4.05;;
53391;SDS011;41667;51.922;8.850;2023-07-31T08:50:12;6.57;;;3.67;;
53391;SDS011;41667;51.922;8.850;2023-07-31T08:52:37;3.95;;;3.47;;
53391;SDS011;41667;51.922;8.850;2023-07-31T08:55:02;4.10;;;3.10;;
53391;SDS011;41667;51.922;8.850;2023-07-31T08:57:27;3.60;;;3.08;;
53391;SDS011;41667;51.922;8.850;2023-07-31T08:59:53;4.75;;;3.67;;
53391;SDS011;41667;51.922;8.850;2023-07-31T09:02:19;3.75;;;2.75;;
53391;SDS011;41667;51.922;8.850;2023-07-31T09:04:44;4.70;;;2.83;;
53391;SDS011;41667;51.922;8.850;2023-07-31T09:07:09;5.43;;;3.25;;
53391;SDS011;41667;51.922;8.850;2023-07-31T09:09:35;6.30;;;3.25;;
53391;SDS011;41667;51.922;8.850;2023-07-31T09:12:00;3.83;;;2.58;;
53391;SDS011;41667;51.922;8.850;2023-07-31T09:14:26;3.78;;;2.72;;
53391;SDS011;41667;51.922;8.850;2023-07-31T09:16:52;3.47;;;2.10;;
53391;SDS011;41667;51.922;8.850;2023-07-31T09:19:24;2.63;;;2.30;;
53391;SDS011;41667;51.922;8.850;2023-07-31T09:21:50;5.75;;;2.78;;
53391;SDS011;41667;51.922;8.850;2023-07-31T09:24:24;4.25;;;3.05;;
53391;SDS011;41667;51.922;8.850;2023-07-31T09:26:49;4.03;;;3.30;;
53391;SDS011;41667;51.922;8.850;2023-07-31T09:29:18;5.82;;;3.28;;
53391;SDS011;41667;51.922;8.850;2023-07-31T09:31:44;5.90;;;2.90;;
53391;SDS011;41667;51.922;8.850;2023-07-31T09:34:10;5.63;;;3.33;;
53391;SDS011;41667;51.922;8.850;2023-07-31T09:36:42;4.93;;;4.28;;
53391;SDS011;41667;51.922;8.850;2023-07-31T09:39:08;5.22;;;3.63;;
53391;SDS011;41667;51.922;8.850;2023-07-31T09:41:36;7.28;;;3.65;;
53391;SDS011;41667;51.922;8.850;2023-07-31T09:44:01;5.18;;;3.70;;
53391;SDS011;41667;51.922;8.850;2023-07-31T09:46:26;5.47;;;3.00;;
53391;SDS011;41667;51.922;8.850;2023-07-31T09:48:52;5.97;;;3.17;;
53391;SDS011;41667;51.922;8.850;2023-07-31T09:51:17;4.68;;;3.30;;
53391;SDS011;41667;51.922;8.850;2023-07-31T09:53:50;4.40;;;3.53;;
53391;SDS011;41667;51.922;8.850;2023-07-31T09:56:15;3.60;;;2.43;;
53391;SDS011;41667;51.922;8.850;2023-07-31T09:58:41;5.35;;;3.05;;
53391;SDS011;41667;51.922;8.850;2023-07-31T10:01:06;2.70;;;2.50;;
53391;SDS011;41667;51.922;8.850;2023-07-31T10:03:32;6.78;;;3.67;;
53391;SDS011;41667;51.922;8.850;2023-07-31T10:05:58;6.03;;;3.22;;
53391;SDS011;41667;51.922;8.850;2023-07-31T10:08:29;6.47;;;3.25;;
53391;SDS011;41667;51.922;8.850;2023-07-31T10:10:55;5.50;;;3.65;;
53391;SDS011;41667;51.922;8.850;2023-07-31T10:13:23;5.88;;;3.88;;
53391;SDS011;41667;51.922;8.850;2023-07-31T10:15:48;5.53;;;3.58;;
53391;SDS011;41667;51.922;8.850;2023-07-31T10:18:13;4.07;;;3.43;;
53391;SDS011;41667;51.922;8.850;2023-07-31T10:20:39;3.40;;;2.75;;
53391;SDS011;41667;51.922;8.850;2023-07-31T10:23:05;6.72;;;3.33;;
53391;SDS011;41667;51.922;8.850;2023-07-31T10:25:31;4.30;;;3.13;;
53391;SDS011;41667;51.922;8.850;2023-07-31T10:27:56;4.10;;;3.20;;
53391;SDS011;41667;51.922;8.850;2023-07-31T10:30:22;5.18;;;3.10;;
53391;SDS011;41667;51.922;8.850;2023-07-31T10:32:49;5.80;;;3.05;;
53391;SDS011;41667;51.922;8.850;2023-07-31T10:35:16;5.43;;;3.13;;
53391;SDS011;41667;51.922;8.850;2023-07-31T10:37:42;3.45;;;2.53;;
53391;SDS011;41667;51.922;8.850;2023-07-31T10:40:23;5.30;;;3.40;;
53391;SDS011;41667;51.922;8.850;2023-07-31T10:42:53;4.65;;;2.72;;
53391;SDS011;41667;51.922;8.850;2023-07-31T10:45:37;4.15;;;2.67;;
53391;SDS011;41667;51.922;8.850;2023-07-31T10:48:03;4.13;;;2.63;;
53391;SDS011;41667;51.922;8.850;2023-07-31T10:50:29;3.80;;;2.78;;
53391;SDS011;41667;51.922;8.850;2023-07-31T10:52:57;4.53;;;2.92;;
53391;SDS011;41667;51.922;8.850;2023-07-31T10:55:33;3.88;;;2.47;;
53391;SDS011;41667;51.922;8.850;2023-07-31T10:58:09;3.13;;;2.30;;
53391;SDS011;41667;51.922;8.850;2023-07-31T11:00:36;4.20;;;2.15;;
53391;SDS011;41667;51.922;8.850;2023-07-31T11:03:03;4.43;;;2.20;;
53391;SDS011;41667;51.922;8.850;2023-07-31T11:10:40;3.65;;;1.50;;
53391;SDS011;41667;51.922;8.850;2023-07-31T11:13:05;4.13;;;1.70;;
53391;SDS011;41667;51.922;8.850;2023-07-31T11:15:30;1.87;;;1.77;;
53391;SDS011;41667;51.922;8.850;2023-07-31T11:17:56;1.92;;;1.67;;
53391;SDS011;41667;51.922;8.850;2023-07-31T11:20:23;2.33;;;2.08;;
53391;SDS011;41667;51.922;8.850;2023-07-31T11:22:48;1.75;;;1.65;;
53391;SDS011;41667;51.922;8.850;2023-07-31T11:25:14;2.10;;;1.60;;
53391;SDS011;41667;51.922;8.850;2023-07-31T11:27:39;2.25;;;1.70;;
53391;SDS011;41667;51.922;8.850;2023-07-31T11:30:05;1.92;;;1.77;;
53391;SDS011;41667;51.922;8.850;2023-07-31T11:32:32;1.88;;;1.50;;
53391;SDS011;41667;51.922;8.850;2023-07-31T11:34:57;4.43;;;1.88;;
53391;SDS011;41667;51.922;8.850;2023-07-31T11:37:22;2.50;;;1.52;;
53391;SDS011;41667;51.922;8.850;2023-07-31T11:40:00;2.28;;;1.60;;
53391;SDS011;41667;51.922;8.850;2023-07-31T11:42:25;1.40;;;1.23;;
53391;SDS011;41667;51.922;8.850;2023-07-31T11:44:51;5.53;;;1.90;;
53391;SDS011;41667;51.922;8.850;2023-07-31T11:47:16;2.55;;;1.35;;
53391;SDS011;41667;51.922;8.850;2023-07-31T11:49:41;3.28;;;1.52;;
53391;SDS011;41667;51.922;8.850;2023-07-31T11:52:06;2.87;;;1.30;;
53391;SDS011;41667;51.922;8.850;2023-07-31T11:54:32;1.50;;;1.40;;
53391;SDS011;41667;51.922;8.850;2023-07-31T11:56:57;1.85;;;1.73;;
53391;SDS011;41667;51.922;8.850;2023-07-31T11:59:23;5.25;;;1.25;;
53391;SDS011;41667;51.922;8.850;2023-07-31T12:01:48;2.50;;;1.53;;
53391;SDS011;41667;51.922;8.850;2023-07-31T12:04:18;2.15;;;1.45;;
53391;SDS011;41667;51.922;8.850;2023-07-31T12:06:44;2.38;;;1.92;;
53391;SDS011;41667;51.922;8.850;2023-07-31T12:09:09;1.92;;;1.40;;
53391;SDS011;41667;51.922;8.850;2023-07-31T12:11:44;3.57;;;1.67;;
53391;SDS011;41667;51.922;8.850;2023-07-31T12:14:19;2.63;;;1.20;;
53391;SDS011;41667;51.922;8.850;2023-07-31T12:16:44;1.40;;;1.30;;
53391;SDS011;41667;51.922;8.850;2023-07-31T12:19:09;3.20;;;1.57;;
53391;SDS011;41667;51.922;8.850;2023-07-31T12:21:35;2.70;;;1.80;;
53391;SDS011;41667;51.922;8.850;2023-07-31T12:24:00;2.30;;;1.67;;
53391;SDS011;41667;51.922;8.850;2023-07-31T12:26:25;2.13;;;1.90;;
53391;SDS011;41667;51.922;8.850;2023-07-31T12:28:58;1.83;;;1.50;;
53391;SDS011;41667;51.922;8.850;2023-07-31T12:31:23;1.40;;;1.27;;
53391;SDS011;41667;51.922;8.850;2023-07-31T12:33:52;1.42;;;1.23;;
53391;SDS011;41667;51.922;8.850;2023-07-31T12:36:21;1.23;;;1.17;;
53391;SDS011;41667;51.922;8.850;2023-07-31T12:38:46;1.35;;;0.95;;
53391;SDS011;41667;51.922;8.850;2023-07-31T12:41:11;2.37;;;0.90;;
53391;SDS011;41667;51.922;8.850;2023-07-31T12:43:37;1.65;;;1.10;;
53391;SDS011;41667;51.922;8.850;2023-07-31T12:46:03;1.38;;;1.38;;
53391;SDS011;41667;51.922;8.850;2023-07-31T12:48:28;1.55;;;1.35;;
53391;SDS011;41667;51.922;8.850;2023-07-31T12:50:53;1.55;;;1.23;;
53391;SDS011;41667;51.922;8.850;2023-07-31T12:53:19;0.88;;;0.88;;
53391;SDS011;41667;51.922;8.850;2023-07-31T12:55:44;1.10;;;1.10;;
53391;SDS011;41667;51.922;8.850;2023-07-31T12:58:09;7.93;;;1.07;;
53391;SDS011;41667;51.922;8.850;2023-07-31T13:00:34;1.77;;;1.30;;
53391;SDS011;41667;51.922;8.850;2023-07-31T13:02:59;1.23;;;1.10;;
53391;SDS011;41667;51.922;8.850;2023-07-31T13:05:25;1.13;;;1.08;;
53391;SDS011;41667;51.922;8.850;2023-07-31T13:07:50;1.15;;;1.05;;
53391;SDS011;41667;51.922;8.850;2023-07-31T13:10:15;1.00;;;1.00;;
53391;SDS011;41667;51.922;8.850;2023-07-31T13:12:40;1.48;;;1.27;;
53391;SDS011;41667;51.922;8.850;2023-07-31T13:15:06;3.87;;;1.27;;
53391;SDS011;41667;51.922;8.850;2023-07-31T13:17:31;2.08;;;1.30;;
53391;SDS011;41667;51.922;8.850;2023-07-31T13:19:56;1.60;;;1.50;;
53391;SDS011;41667;51.922;8.850;2023-07-31T13:22:22;1.88;;;1.60;;
53391;SDS011;41667;51.922;8.850;2023-07-31T13:24:47;3.60;;;1.92;;
53391;SDS011;41667;51.922;8.850;2023-07-31T13:27:12;2.58;;;2.38;;
53391;SDS011;41667;51.922;8.850;2023-07-31T13:29:38;2.78;;;2.47;;
53391;SDS011;41667;51.922;8.850;2023-07-31T13:32:03;4.60;;;2.73;;
53391;SDS011;41667;51.922;8.850;2023-07-31T13:34:28;2.15;;;1.98;;
53391;SDS011;41667;51.922;8.850;2023-07-31T13:36:54;2.63;;;2.42;;
53391;SDS011;41667;51.922;8.850;2023-07-31T13:39:20;2.65;;;2.28;;
53391;SDS011;41667;51.922;8.850;2023-07-31T13:41:45;4.60;;;2.90;;
53391;SDS011;41667;51.922;8.850;2023-07-31T13:44:11;2.20;;;2.03;;
53391;SDS011;41667;51.922;8.850;2023-07-31T13:46:36;2.70;;;2.50;;
53391;SDS011;41667;51.922;8.850;2023-07-31T13:49:01;1.92;;;1.80;;
53391;SDS011;41667;51.922;8.850;2023-07-31T13:51:27;2.50;;;2.03;;
53391;SDS011;41667;51.922;8.850;2023-07-31T13:53:52;2.10;;;1.90;;
53391;SDS011;41667;51.922;8.850;2023-07-31T13:56:18;2.30;;;2.10;;
53391;SDS011;41667;51.922;8.850;2023-07-31T13:58:43;1.97;;;1.87;;
53391;SDS011;41667;51.922;8.850;2023-07-31T14:01:08;1.73;;;1.63;;
53391;SDS011;41667;51.922;8.850;2023-07-31T14:03:33;2.55;;;2.28;;
53391;SDS011;41667;51.922;8.850;2023-07-31T14:05:59;1.90;;;1.80;;
53391;SDS011;41667;51.922;8.850;2023-07-31T14:08:24;5.57;;;2.17;;
53391;SDS011;41667;51.922;8.850;2023-07-31T14:10:49;3.10;;;1.90;;
53391;SDS011;41667;51.922;8.850;2023-07-31T14:13:14;2.00;;;1.58;;
53391;SDS011;41667;51.922;8.850;2023-07-31T14:15:41;2.00;;;1.70;;
53391;SDS011;41667;51.922;8.850;2023-07-31T14:18:06;1.70;;;1.40;;
53391;SDS011;41667;51.922;8.850;2023-07-31T14:20:31;3.10;;;1.80;;
53391;SDS011;41667;51.922;8.850;2023-07-31T14:22:57;2.05;;;1.55;;
53391;SDS011;41667;51.922;8.850;2023-07-31T14:25:22;1.70;;;1.60;;
53391;SDS011;41667;51.922;8.850;2023-07-31T14:27:47;1.70;;;1.60;;
53391;SDS011;41667;51.922;8.850;2023-07-31T14:30:12;1.88;;;1.77;;
53391;SDS011;41667;51.922;8.850;2023-07-31T14:32:37;2.03;;;1.80;;
53391;SDS011;41667;51.922;8.850;2023-07-31T14:35:03;1.83;;;1.63;;
53391;SDS011;41667;51.922;8.850;2023-07-31T14:37:36;2.45;;;1.40;;
53391;SDS011;41667;51.922;8.850;2023-07-31T14:40:01;1.35;;;1.25;;
53391;SDS011;41667;51.922;8.850;2023-07-31T14:42:26;2.47;;;1.47;;
53391;SDS011;41667;51.922;8.850;2023-07-31T14:44:51;2.55;;;1.55;;